Time;durP1;ratioP1;P1;durP2;ratioP2;P2;SDS_P1;SDS_P2;PMS_P1;PMS_P2;Temp;Humidity;BMP_temperature;BMP_pressure;BME280_temperature;BME280_humidity;BME280_pressure;Samples;Min_cycle;Max_cycle;Signal;HPM_P1;HPM_P2
2022/08/31 00:04:44;;;;;;;0.40;0.40;;;15.00;99.90;;;;;;5066553;28;20363;-80
2022/08/31 00:07:10;;;;;;;0.40;0.40;;;15.00;99.90;;;;;;5067724;28;20059;-80
2022/08/31 00:09:36;;;;;;;0.40;0.40;;;15.00;99.90;;;;;;5062964;28;20071;-80
2022/08/31 00:12:02;;;;;;;0.40;0.40;;;15.00;99.90;;;;;;5068016;28;20043;-80
2022/08/31 00:14:28;;;;;;;0.47;0.47;;;15.10;99.90;;;;;;5048066;28;20093;-80
2022/08/31 00:16:54;;;;;;;0.40;0.40;;;15.10;99.90;;;;;;5057896;28;20051;-80
2022/08/31 00:19:19;;;;;;;0.40;0.40;;;15.20;99.90;;;;;;5066397;28;20066;-80
2022/08/31 00:21:45;;;;;;;0.40;0.40;;;15.20;99.90;;;;;;5068785;28;20077;-80
2022/08/31 00:24:13;;;;;;;0.40;0.40;;;15.20;99.90;;;;;;5040802;28;20055;-80
2022/08/31 00:26:39;;;;;;;0.40;0.40;;;15.20;99.90;;;;;;5046400;28;20054;-81
2022/08/31 00:29:06;;;;;;;0.40;0.40;;;15.30;99.90;;;;;;5032030;28;20504;-80
2022/08/31 00:31:31;;;;;;;0.40;0.40;;;15.20;99.90;;;;;;5056840;28;20131;-80
2022/08/31 00:33:57;;;;;;;0.47;0.47;;;15.20;99.90;;;;;;5069229;28;20093;-80
2022/08/31 00:36:25;;;;;;;0.40;0.40;;;15.10;99.90;;;;;;5088589;28;20039;-80
2022/08/31 00:38:51;;;;;;;0.40;0.40;;;15.10;99.90;;;;;;5087838;28;20043;-80
2022/08/31 00:41:20;;;;;;;0.40;0.40;;;15.10;99.90;;;;;;5088832;28;20625;-80
2022/08/31 00:43:52;;;;;;;0.50;0.50;;;15.10;99.90;;;;;;5086775;28;20124;-80
2022/08/31 00:46:25;;;;;;;0.40;0.40;;;15.10;99.90;;;;;;5086761;28;20540;-80
2022/08/31 00:49:06;;;;;;;0.50;0.50;;;15.00;99.90;;;;;;5087855;28;20058;-80
2022/08/31 00:51:38;;;;;;;0.40;0.40;;;15.00;99.90;;;;;;5088371;28;20097;-79
2022/08/31 00:54:07;;;;;;;0.40;0.40;;;15.00;99.90;;;;;;5087434;28;20738;-80
2022/08/31 00:56:34;;;;;;;0.40;0.40;;;14.90;99.90;;;;;;5085888;28;20155;-79
2022/08/31 00:59:01;;;;;;;0.40;0.40;;;14.90;99.90;;;;;;5084897;28;20050;-79
2022/08/31 01:01:29;;;;;;;0.40;0.40;;;14.80;99.90;;;;;;5083539;28;20083;-79
2022/08/31 01:03:55;;;;;;;0.40;0.40;;;14.70;99.90;;;;;;5070409;28;20569;-79
2022/08/31 01:06:22;;;;;;;0.40;0.40;;;14.70;99.90;;;;;;5084116;28;20125;-79
2022/08/31 01:08:49;;;;;;;0.50;0.50;;;14.70;99.90;;;;;;5085092;28;20044;-80
2022/08/31 01:11:18;;;;;;;0.40;0.40;;;14.60;99.90;;;;;;5090403;28;20509;-80
2022/08/31 01:13:44;;;;;;;0.40;0.40;;;14.60;99.90;;;;;;5084493;28;20056;-79
2022/08/31 01:16:17;;;;;;;0.40;0.40;;;14.60;99.90;;;;;;5082578;28;20052;-80
2022/08/31 01:18:44;;;;;;;0.40;0.40;;;14.60;99.90;;;;;;5066358;28;20496;-80
2022/08/31 01:21:51;;;;;;;0.40;0.40;;;14.50;99.90;;;;;;5080385;28;20145;-80
2022/08/31 01:24:19;;;;;;;0.40;0.40;;;14.50;99.90;;;;;;4989351;28;20409;-80
2022/08/31 01:26:47;;;;;;;0.40;0.40;;;14.30;99.90;;;;;;5055239;28;20278;-80
2022/08/31 01:29:13;;;;;;;0.40;0.40;;;14.30;99.90;;;;;;5085118;28;20039;-80
2022/08/31 01:31:42;;;;;;;0.40;0.40;;;14.30;99.90;;;;;;5085632;28;20066;-80
2022/08/31 01:34:08;;;;;;;0.40;0.40;;;14.20;99.90;;;;;;5083298;28;20048;-79
2022/08/31 01:36:37;;;;;;;0.40;0.40;;;14.10;99.90;;;;;;5084654;28;20710;-79
2022/08/31 01:39:05;;;;;;;0.40;0.40;;;14.10;99.90;;;;;;5082304;28;20092;-80
2022/08/31 01:41:30;;;;;;;0.40;0.40;;;14.10;99.90;;;;;;5066480;28;20408;-80
2022/08/31 01:43:56;;;;;;;0.40;0.40;;;14.00;99.90;;;;;;5067640;28;20035;-80
2022/08/31 01:46:23;;;;;;;0.40;0.40;;;14.00;99.90;;;;;;5085815;28;20039;-80
2022/08/31 01:48:49;;;;;;;0.40;0.40;;;14.00;99.90;;;;;;5066993;28;20464;-80
2022/08/31 01:51:18;;;;;;;0.40;0.40;;;13.90;99.90;;;;;;5084582;28;20043;-80
2022/08/31 01:53:46;;;;;;;0.40;0.40;;;13.90;99.90;;;;;;5069714;28;20670;-81
2022/08/31 01:56:29;;;;;;;0.40;0.40;;;13.90;99.90;;;;;;5084736;28;20051;-80
2022/08/31 01:58:55;;;;;;;0.40;0.40;;;13.80;99.90;;;;;;5067577;28;20043;-80
2022/08/31 02:01:27;;;;;;;0.40;0.40;;;13.70;99.90;;;;;;5065562;28;20111;-81
2022/08/31 02:03:53;;;;;;;0.40;0.40;;;13.70;99.90;;;;;;5068594;28;20097;-80
2022/08/31 02:06:19;;;;;;;0.40;0.40;;;13.60;99.90;;;;;;5067477;28;20060;-80
2022/08/31 02:08:44;;;;;;;0.40;0.40;;;13.50;99.90;;;;;;5086045;28;20475;-80
2022/08/31 02:11:10;;;;;;;0.40;0.40;;;13.50;99.90;;;;;;5066615;28;20056;-80
2022/08/31 02:13:36;;;;;;;0.40;0.40;;;13.50;99.90;;;;;;5083412;28;20802;-80
2022/08/31 02:16:03;;;;;;;0.40;0.40;;;13.40;99.90;;;;;;5082741;28;20500;-81
2022/08/31 02:18:29;;;;;;;0.50;0.50;;;13.40;99.90;;;;;;5081348;28;20046;-80
2022/08/31 02:20:55;;;;;;;0.40;0.40;;;13.40;99.90;;;;;;5084859;28;20031;-80
2022/08/31 02:23:21;;;;;;;0.40;0.40;;;13.30;99.90;;;;;;5068240;28;20062;-80
2022/08/31 02:25:47;;;;;;;0.40;0.40;;;13.30;99.90;;;;;;5065177;28;20115;-80
2022/08/31 02:28:12;;;;;;;0.50;0.50;;;13.30;99.90;;;;;;5059962;28;20059;-80
2022/08/31 02:30:40;;;;;;;0.40;0.40;;;13.30;99.90;;;;;;5084873;28;20083;-80
2022/08/31 02:33:06;;;;;;;0.40;0.40;;;13.20;99.90;;;;;;5064781;28;20173;-81
2022/08/31 02:35:33;;;;;;;0.40;0.40;;;13.10;99.90;;;;;;5083271;28;20043;-81
2022/08/31 02:37:59;;;;;;;0.40;0.40;;;13.10;99.90;;;;;;5083001;28;20046;-80
2022/08/31 02:40:26;;;;;;;0.40;0.40;;;13.00;99.90;;;;;;5083565;28;20122;-80
2022/08/31 02:42:51;;;;;;;0.40;0.40;;;13.00;99.90;;;;;;5066890;28;20080;-80
2022/08/31 02:45:17;;;;;;;0.50;0.50;;;13.00;99.90;;;;;;5065331;28;20040;-81
2022/08/31 02:47:43;;;;;;;0.40;0.40;;;13.00;99.90;;;;;;5089052;28;20060;-80
2022/08/31 02:50:09;;;;;;;0.50;0.50;;;12.90;99.90;;;;;;5082486;28;20035;-80
2022/08/31 02:52:35;;;;;;;0.40;0.40;;;12.90;99.90;;;;;;5082538;28;20480;-80
2022/08/31 02:55:01;;;;;;;0.40;0.40;;;12.90;99.90;;;;;;5087295;28;20155;-80
2022/08/31 02:57:27;;;;;;;0.43;0.43;;;12.90;99.90;;;;;;5082867;28;20039;-81
2022/08/31 02:59:52;;;;;;;0.40;0.40;;;12.80;99.90;;;;;;5068117;28;20067;-80
2022/08/31 03:02:20;;;;;;;0.40;0.40;;;12.80;99.90;;;;;;5066119;28;20080;-81
2022/08/31 03:04:46;;;;;;;0.40;0.40;;;12.70;99.90;;;;;;5083987;28;20051;-80
2022/08/31 03:07:11;;;;;;;0.40;0.40;;;12.70;99.90;;;;;;5083163;28;20105;-80
2022/08/31 03:09:37;;;;;;;0.50;0.50;;;12.70;99.90;;;;;;5084759;28;20548;-80
2022/08/31 03:12:03;;;;;;;0.40;0.40;;;12.70;99.90;;;;;;5084520;28;20173;-80
2022/08/31 03:14:29;;;;;;;0.40;0.40;;;12.70;99.90;;;;;;5065689;28;20112;-80
2022/08/31 03:16:54;;;;;;;0.40;0.40;;;12.70;99.90;;;;;;5082064;28;20558;-80
2022/08/31 03:19:20;;;;;;;0.40;0.40;;;12.70;99.90;;;;;;5078258;28;20055;-80
2022/08/31 03:21:46;;;;;;;0.40;0.40;;;12.60;99.90;;;;;;5085722;28;20047;-80
2022/08/31 03:24:20;;;;;;;0.40;0.40;;;12.70;99.90;;;;;;5081900;28;20079;-80
2022/08/31 03:26:46;;;;;;;0.40;0.40;;;12.70;99.90;;;;;;5054378;28;20621;-80
2022/08/31 03:29:12;;;;;;;0.40;0.40;;;12.70;99.90;;;;;;5083831;28;20043;-80
2022/08/31 03:31:38;;;;;;;0.50;0.50;;;12.70;99.90;;;;;;5063818;28;20558;-80
2022/08/31 03:34:05;;;;;;;0.50;0.50;;;12.60;99.90;;;;;;5064230;28;21053;-80
2022/08/31 03:36:30;;;;;;;0.40;0.40;;;12.70;99.90;;;;;;5079460;28;20192;-80
2022/08/31 03:38:56;;;;;;;0.40;0.40;;;12.70;99.90;;;;;;5081862;28;20556;-80
2022/08/31 03:41:24;;;;;;;0.40;0.40;;;12.60;99.90;;;;;;5082014;28;20066;-80
2022/08/31 03:43:50;;;;;;;0.40;0.40;;;12.60;99.90;;;;;;5044272;28;20056;-80
2022/08/31 03:46:17;;;;;;;0.40;0.40;;;12.50;99.90;;;;;;5083587;28;20048;-80
2022/08/31 03:48:45;;;;;;;0.40;0.40;;;12.50;99.90;;;;;;5081826;28;20051;-80
2022/08/31 03:51:11;;;;;;;0.40;0.40;;;12.50;99.90;;;;;;5073318;28;20451;-80
2022/08/31 03:53:37;;;;;;;0.40;0.40;;;12.40;99.90;;;;;;5062326;28;20058;-80
2022/08/31 03:56:05;;;;;;;0.45;0.45;;;12.40;99.90;;;;;;5066056;28;20046;-80
2022/08/31 03:58:31;;;;;;;0.40;0.40;;;12.40;99.90;;;;;;5079987;28;20066;-81
2022/08/31 04:00:57;;;;;;;0.40;0.40;;;12.40;99.90;;;;;;5059997;28;20040;-80
2022/08/31 04:03:23;;;;;;;0.40;0.40;;;12.30;99.90;;;;;;5082331;28;20058;-80
2022/08/31 04:05:49;;;;;;;0.50;0.50;;;12.30;99.90;;;;;;5061999;28;20176;-80
2022/08/31 04:08:16;;;;;;;0.40;0.40;;;12.20;99.90;;;;;;5063971;28;20051;-80
2022/08/31 04:10:44;;;;;;;0.40;0.40;;;12.10;99.90;;;;;;5083131;28;20044;-80
2022/08/31 04:13:10;;;;;;;0.50;0.50;;;12.10;99.90;;;;;;5060711;28;20044;-81
2022/08/31 04:15:36;;;;;;;0.40;0.40;;;12.10;99.90;;;;;;5084061;28;20140;-80
2022/08/31 04:18:03;;;;;;;0.40;0.40;;;12.10;99.90;;;;;;5083331;28;20044;-80
2022/08/31 04:20:33;;;;;;;0.40;0.40;;;12.00;99.90;;;;;;5081403;28;20036;-80
2022/08/31 04:22:59;;;;;;;0.40;0.40;;;12.00;99.90;;;;;;5061193;28;20140;-81
2022/08/31 04:25:25;;;;;;;0.40;0.40;;;11.90;99.90;;;;;;5078824;28;20492;-80
2022/08/31 04:27:53;;;;;;;0.40;0.40;;;12.00;99.90;;;;;;5061793;28;20039;-81
2022/08/31 04:30:20;;;;;;;0.40;0.40;;;11.90;99.90;;;;;;5085818;28;20051;-80
2022/08/31 04:32:46;;;;;;;0.40;0.40;;;11.90;99.90;;;;;;5088681;28;20465;-80
2022/08/31 04:35:13;;;;;;;0.45;0.45;;;11.80;99.90;;;;;;5082890;28;20055;-81
2022/08/31 04:37:41;;;;;;;0.50;0.50;;;11.80;99.90;;;;;;5084172;28;20059;-80
2022/08/31 04:40:18;;;;;;;0.57;0.57;;;11.90;99.90;;;;;;5084158;28;20289;-80
2022/08/31 04:42:45;;;;;;;0.50;0.50;;;11.90;99.90;;;;;;5065587;28;20105;-80
2022/08/31 04:45:12;;;;;;;0.40;0.40;;;11.80;99.90;;;;;;5072291;28;20067;-80
2022/08/31 04:47:40;;;;;;;0.50;0.50;;;11.80;99.90;;;;;;5066749;28;20040;-80
2022/08/31 04:50:06;;;;;;;0.50;0.50;;;11.80;99.90;;;;;;5084953;28;20886;-80
2022/08/31 04:52:32;;;;;;;0.50;0.50;;;11.80;99.90;;;;;;5080238;28;20071;-80
2022/08/31 04:54:58;;;;;;;0.40;0.40;;;11.80;99.90;;;;;;5086782;28;20280;-80
2022/08/31 04:57:24;;;;;;;0.50;0.50;;;11.90;99.90;;;;;;5083924;28;20043;-81
2022/08/31 04:59:49;;;;;;;0.50;0.50;;;11.80;99.90;;;;;;5050114;28;20716;-80
2022/08/31 05:02:15;;;;;;;0.50;0.50;;;11.90;99.90;;;;;;5070372;28;20043;-80
2022/08/31 05:04:41;;;;;;;0.50;0.50;;;11.80;99.90;;;;;;5088791;28;20047;-80
2022/08/31 05:07:06;;;;;;;0.50;0.50;;;11.90;99.90;;;;;;5053187;28;20092;-81
2022/08/31 05:09:32;;;;;;;0.50;0.50;;;11.90;99.90;;;;;;5076299;28;20040;-80
2022/08/31 05:11:58;;;;;;;0.40;0.40;;;12.00;99.90;;;;;;5062932;28;20120;-80
2022/08/31 05:14:24;;;;;;;0.50;0.50;;;12.20;99.90;;;;;;5077613;28;20122;-81
2022/08/31 05:16:50;;;;;;;0.40;0.40;;;12.40;99.90;;;;;;5076748;28;20130;-80
2022/08/31 05:19:17;;;;;;;0.40;0.40;;;12.70;99.90;;;;;;5077760;28;20468;-80
2022/08/31 05:21:44;;;;;;;0.47;0.47;;;12.70;99.90;;;;;;5076933;28;20065;-80
2022/08/31 05:24:21;;;;;;;0.50;0.50;;;13.20;99.90;;;;;;5078326;28;20415;-80
2022/08/31 05:26:49;;;;;;;0.40;0.40;;;13.60;99.90;;;;;;5079719;28;20040;-80
2022/08/31 05:29:19;;;;;;;0.40;0.40;;;14.30;99.90;;;;;;5080269;28;20051;-81
2022/08/31 05:31:45;;;;;;;0.40;0.40;;;15.00;99.90;;;;;;5077081;28;20062;-80
2022/08/31 05:34:13;;;;;;;0.40;0.40;;;15.80;99.90;;;;;;5053825;28;20852;-80
2022/08/31 05:36:42;;;;;;;0.40;0.40;;;16.30;99.90;;;;;;5059544;28;20055;-80
2022/08/31 05:39:10;;;;;;;0.40;0.40;;;16.90;99.90;;;;;;5075916;28;20136;-80
2022/08/31 05:41:42;;;;;;;0.40;0.40;;;17.30;99.90;;;;;;5074750;28;20516;-79
2022/08/31 05:44:08;;;;;;;0.40;0.40;;;17.90;99.90;;;;;;5077571;28;20484;-79
2022/08/31 05:46:34;;;;;;;0.40;0.40;;;18.00;99.90;;;;;;5052875;28;20101;-81
2022/08/31 05:49:00;;;;;;;0.40;0.40;;;17.50;99.90;;;;;;5054659;28;20721;-79
2022/08/31 05:51:26;;;;;;;0.40;0.40;;;17.90;99.90;;;;;;5048554;28;20063;-80
2022/08/31 05:53:52;;;;;;;0.40;0.40;;;16.60;99.90;;;;;;5070538;28;20154;-80
2022/08/31 05:56:25;;;;;;;0.40;0.40;;;15.60;99.90;;;;;;5049669;28;20067;-80
2022/08/31 05:58:52;;;;;;;0.40;0.40;;;15.40;99.90;;;;;;5072111;28;20153;-79
2022/08/31 06:01:23;;;;;;;0.40;0.40;;;15.20;99.90;;;;;;5050354;28;20047;-79
2022/08/31 06:03:50;;;;;;;0.40;0.40;;;14.90;99.90;;;;;;5060859;28;20336;-78
2022/08/31 06:06:16;;;;;;;0.40;0.40;;;14.80;99.90;;;;;;5049283;28;20039;-79
2022/08/31 06:08:43;;;;;;;0.40;0.40;;;14.80;99.90;;;;;;5068928;28;20071;-79
2022/08/31 06:11:14;;;;;;;0.40;0.40;;;14.80;99.90;;;;;;5067089;28;20044;-79
2022/08/31 06:13:40;;;;;;;0.40;0.40;;;14.60;99.90;;;;;;5069497;28;20055;-80
2022/08/31 06:16:07;;;;;;;0.40;0.40;;;14.40;99.90;;;;;;5067934;28;20111;-79
2022/08/31 06:18:32;;;;;;;0.40;0.40;;;14.30;99.90;;;;;;5085785;28;20047;-79
2022/08/31 06:21:08;;;;;;;0.50;0.50;;;14.20;99.90;;;;;;5066082;28;20804;-79
2022/08/31 06:23:35;;;;;;;0.50;0.50;;;14.20;99.90;;;;;;5062985;28;20054;-79
2022/08/31 06:26:14;;;;;;;0.50;0.50;;;14.30;99.90;;;;;;5085076;28;20399;-79
2022/08/31 06:28:45;;;;;;;0.40;0.40;;;14.40;99.90;;;;;;5065732;28;20051;-80
2022/08/31 06:31:23;;;;;;;0.50;0.50;;;14.40;99.90;;;;;;5085524;28;20044;-81
2022/08/31 06:33:50;;;;;;;0.40;0.40;;;14.60;99.90;;;;;;5066007;28;20134;-80
2022/08/31 06:36:19;;;;;;;0.40;0.40;;;14.90;99.90;;;;;;5069078;28;20047;-80
2022/08/31 06:38:45;;;;;;;0.40;0.40;;;15.00;99.90;;;;;;5064589;28;20621;-80
2022/08/31 06:41:32;;;;;;;0.40;0.40;;;15.10;99.90;;;;;;5064678;28;20059;-79
2022/08/31 06:43:59;;;;;;;0.40;0.40;;;15.20;99.90;;;;;;5068255;28;20047;-80
2022/08/31 06:46:25;;;;;;;0.40;0.40;;;15.30;99.90;;;;;;5068330;28;20540;-79
2022/08/31 06:48:55;;;;;;;0.40;0.40;;;15.10;99.90;;;;;;5085918;28;20048;-81
2022/08/31 06:51:21;;;;;;;0.40;0.40;;;15.50;99.90;;;;;;5084758;28;20436;-81
2022/08/31 06:53:46;;;;;;;0.40;0.40;;;15.90;99.90;;;;;;5087096;28;20047;-79
2022/08/31 06:56:22;;;;;;;0.40;0.40;;;16.10;99.90;;;;;;5086446;28;20672;-80
2022/08/31 06:58:49;;;;;;;0.40;0.40;;;15.90;99.90;;;;;;5068001;28;20051;-80
2022/08/31 07:01:19;;;;;;;0.40;0.40;;;15.90;99.90;;;;;;5067628;28;20078;-81
2022/08/31 07:03:48;;;;;;;0.40;0.40;;;15.80;99.90;;;;;;5065832;28;20055;-81
2022/08/31 07:06:17;;;;;;;0.40;0.40;;;16.00;99.90;;;;;;5054669;28;20118;-81
2022/08/31 07:08:45;;;;;;;0.40;0.40;;;16.30;99.90;;;;;;5065929;28;20062;-80
2022/08/31 07:11:17;;;;;;;0.40;0.40;;;16.50;99.90;;;;;;5067128;28;20047;-80
2022/08/31 07:13:43;;;;;;;0.40;0.40;;;16.90;99.90;;;;;;5067579;28;20081;-79
2022/08/31 07:16:11;;;;;;;0.40;0.40;;;16.80;99.90;;;;;;5066422;28;20118;-81
2022/08/31 07:18:38;;;;;;;0.40;0.40;;;16.70;99.90;;;;;;5083417;28;20043;-81
2022/08/31 07:21:21;;;;;;;0.40;0.40;;;17.00;99.90;;;;;;5083831;28;20493;-83
2022/08/31 07:23:48;;;;;;;0.40;0.40;;;16.80;99.90;;;;;;5067947;28;20051;-79
2022/08/31 07:26:27;;;;;;;0.40;0.40;;;17.00;99.90;;;;;;5078159;28;20138;-81
2022/08/31 07:28:54;;;;;;;0.40;0.40;;;17.20;99.90;;;;;;5067939;28;20056;-79
2022/08/31 07:31:23;;;;;;;0.40;0.40;;;17.50;99.90;;;;;;5081938;28;20042;-79
2022/08/31 07:33:54;;;;;;;0.40;0.40;;;17.40;99.90;;;;;;5065683;28;20048;-81
2022/08/31 07:36:22;;;;;;;0.40;0.40;;;17.50;99.90;;;;;;5062034;28;20097;-80
2022/08/31 07:44:18;;;;;;;;;;;17.60;99.90;;;;;;5066014;28;20043;-81
2022/08/31 07:46:45;;;;;;;0.40;0.40;;;17.80;99.90;;;;;;5065485;28;20395;-83
2022/08/31 07:49:11;;;;;;;0.40;0.40;;;18.00;99.90;;;;;;5064782;28;20547;-79
2022/08/31 07:51:49;;;;;;;0.40;0.40;;;18.00;99.90;;;;;;5066606;28;20421;-81
2022/08/31 07:54:19;;;;;;;0.40;0.40;;;18.40;99.90;;;;;;5064677;28;20920;-80
2022/08/31 07:56:47;;;;;;;0.40;0.40;;;18.50;99.90;;;;;;5066223;28;20146;-82
2022/08/31 07:59:13;;;;;;;0.40;0.40;;;18.60;99.90;;;;;;5077141;28;20528;-81
2022/08/31 08:01:40;;;;;;;0.40;0.40;;;18.30;99.90;;;;;;5067996;28;20741;-81
2022/08/31 08:04:06;;;;;;;0.40;0.40;;;18.60;99.90;;;;;;5075917;28;20052;-81
2022/08/31 08:06:32;;;;;;;0.35;0.35;;;18.90;99.90;;;;;;5037889;28;20051;-79
2022/08/31 08:09:05;;;;;;;0.32;0.32;;;19.00;99.90;;;;;;5081833;28;20057;-81
2022/08/31 08:11:35;;;;;;;0.30;0.30;;;18.60;99.90;;;;;;5058034;28;20695;-79
2022/08/31 08:14:02;;;;;;;0.30;0.30;;;19.20;99.90;;;;;;5069476;28;20043;-81
2022/08/31 08:16:28;;;;;;;0.30;0.30;;;18.90;99.90;;;;;;5052190;28;20047;-81
2022/08/31 08:18:54;;;;;;;0.30;0.30;;;19.00;99.90;;;;;;5069754;28;20047;-80
2022/08/31 08:21:20;;;;;;;0.30;0.30;;;19.20;99.90;;;;;;5066924;28;20163;-81
2022/08/31 08:23:45;;;;;;;0.40;0.40;;;19.20;99.90;;;;;;5075016;28;20055;-83
2022/08/31 08:26:11;;;;;;;0.40;0.40;;;19.50;99.90;;;;;;5069276;28;20044;-83
2022/08/31 08:28:37;;;;;;;0.40;0.40;;;19.40;99.90;;;;;;5083874;28;20330;-82
2022/08/31 08:31:04;;;;;;;0.30;0.30;;;19.00;99.90;;;;;;5069763;28;20058;-78
2022/08/31 08:33:32;;;;;;;0.30;0.30;;;19.40;99.90;;;;;;5070166;28;20043;-78
2022/08/31 08:36:01;;;;;;;0.30;0.30;;;19.40;99.90;;;;;;5064543;28;20048;-81
2022/08/31 08:38:32;;;;;;;0.30;0.30;;;19.70;99.90;;;;;;5065170;28;20048;-80
2022/08/31 08:41:01;;;;;;;0.30;0.30;;;19.90;99.90;;;;;;5070752;28;20047;-81
2022/08/31 08:43:36;;;;;;;0.30;0.30;;;19.70;99.90;;;;;;5084143;28;20048;-83
2022/08/31 08:46:04;;;;;;;0.30;0.30;;;19.40;99.90;;;;;;5069121;28;20078;-79
2022/08/31 08:48:36;;;;;;;0.40;0.40;;;19.70;99.90;;;;;;5065901;28;20083;-80
2022/08/31 08:51:09;;;;;;;0.30;0.30;;;19.40;99.90;;;;;;5066550;28;20849;-83
2022/08/31 08:53:37;;;;;;;0.30;0.30;;;19.70;99.90;;;;;;5080827;28;20038;-81
2022/08/31 08:56:03;;;;;;;0.40;0.40;;;20.00;99.90;;;;;;5052372;28;20047;-80
2022/08/31 08:58:29;;;;;;;0.40;0.40;;;19.90;99.90;;;;;;5047592;28;20051;-81
2022/08/31 09:00:56;;;;;;;0.30;0.30;;;19.70;99.90;;;;;;5066622;28;20059;-84
2022/08/31 09:03:40;;;;;;;0.30;0.30;;;19.70;99.90;;;;;;5066758;28;20515;-80
2022/08/31 09:06:34;;;;;;;0.30;0.30;;;19.80;99.90;;;;;;5064799;28;20066;-81
2022/08/31 09:09:17;;;;;;;0.40;0.40;;;19.80;99.90;;;;;;5068415;28;20083;-82
2022/08/31 09:12:19;;;;;;;0.30;0.30;;;20.10;99.90;;;;;;5051479;28;20047;-83
2022/08/31 09:15:14;;;;;;;0.30;0.30;;;20.10;99.90;;;;;;5069262;28;20043;-81
2022/08/31 09:17:49;;;;;;;0.40;0.40;;;20.50;99.90;;;;;;5042490;28;20404;-82
2022/08/31 09:20:16;;;;;;;0.40;0.40;;;21.00;99.90;;;;;;5066177;28;20047;-81
2022/08/31 09:22:48;;;;;;;0.30;0.30;;;20.70;99.90;;;;;;5066286;28;20097;-82
2022/08/31 09:25:31;;;;;;;0.30;0.30;;;20.70;99.90;;;;;;5068749;28;20078;-83
2022/08/31 09:28:06;;;;;;;0.35;0.35;;;20.80;99.90;;;;;;5077825;28;20494;-81
2022/08/31 09:30:44;;;;;;;0.30;0.30;;;20.80;99.90;;;;;;5065738;28;20669;-79
2022/08/31 09:33:23;;;;;;;0.30;0.30;;;21.00;99.90;;;;;;5066937;28;20524;-82
2022/08/31 09:35:55;;;;;;;0.30;0.30;;;21.00;99.90;;;;;;5080835;28;20051;-81
2022/08/31 09:38:38;;;;;;;0.30;0.30;;;20.40;99.90;;;;;;5060950;28;20055;-83
2022/08/31 09:41:36;;;;;;;0.30;0.30;;;20.70;99.90;;;;;;5066689;28;20047;-79
2022/08/31 09:44:22;;;;;;;0.30;0.30;;;21.00;99.90;;;;;;5048169;28;20052;-81
2022/08/31 09:46:52;;;;;;;0.40;0.40;;;20.80;99.90;;;;;;5066543;28;20051;-84
2022/08/31 09:49:25;;;;;;;0.30;0.30;;;21.40;99.90;;;;;;5069188;28;20082;-81
2022/08/31 09:51:51;;;;;;;0.30;0.30;;;21.50;99.90;;;;;;5064398;28;20116;-82
2022/08/31 09:57:08;;;;;;;0.30;0.30;;;21.60;99.90;;;;;;5069370;28;20052;-82
2022/08/31 09:59:45;;;;;;;0.30;0.30;;;21.60;99.90;;;;;;5078086;28;21171;-83
2022/08/31 10:02:25;;;;;;;0.30;0.30;;;21.60;99.90;;;;;;5082350;28;20047;-81
2022/08/31 10:04:54;;;;;;;0.30;0.30;;;21.80;99.20;;;;;;5084590;28;20044;-79
2022/08/31 10:07:50;;;;;;;0.30;0.30;;;21.80;98.80;;;;;;5065286;28;20052;-81
2022/08/31 10:10:21;;;;;;;0.30;0.30;;;21.70;97.90;;;;;;5055659;28;20096;-81
2022/08/31 10:12:54;;;;;;;0.30;0.30;;;21.30;99.80;;;;;;5067828;28;20059;-80
2022/08/31 10:15:51;;;;;;;0.30;0.30;;;21.50;99.90;;;;;;5049687;28;20127;-84
2022/08/31 10:18:42;;;;;;;0.30;0.30;;;21.90;99.40;;;;;;5064955;28;20051;-81
2022/08/31 10:21:20;;;;;;;0.30;0.30;;;22.20;99.90;;;;;;5047762;28;20150;-83
2022/08/31 10:23:58;;;;;;;0.40;0.40;;;22.10;99.20;;;;;;5055541;28;20130;-84
2022/08/31 10:26:34;;;;;;;0.30;0.30;;;21.90;98.60;;;;;;5065418;28;20103;-81
2022/08/31 10:29:05;;;;;;;0.30;0.30;;;22.20;99.70;;;;;;5045572;28;20047;-78
2022/08/31 10:31:45;;;;;;;0.30;0.30;;;22.60;99.30;;;;;;5067032;28;20052;-83
2022/08/31 10:37:24;;;;;;;0.30;0.30;;;21.80;96.70;;;;;;5086190;28;20055;-83
2022/08/31 10:39:57;;;;;;;0.30;0.30;;;21.80;98.60;;;;;;5068440;28;20047;-79
2022/08/31 10:42:37;;;;;;;0.40;0.40;;;21.90;97.90;;;;;;5063643;28;20044;-80
2022/08/31 10:45:23;;;;;;;0.30;0.30;;;21.60;97.20;;;;;;5066169;28;20050;-83
2022/08/31 10:47:52;;;;;;;0.40;0.40;;;21.50;97.40;;;;;;5082739;28;20081;-82
2022/08/31 10:51:04;;;;;;;0.30;0.30;;;21.60;97.30;;;;;;5065823;28;20047;-78
2022/08/31 10:53:45;;;;;;;0.30;0.30;;;22.00;96.70;;;;;;4952868;28;20072;-82
2022/08/31 10:56:49;;;;;;;0.30;0.30;;;22.00;97.20;;;;;;5065311;28;20074;-82
2022/08/31 10:59:42;;;;;;;0.30;0.30;;;22.40;97.70;;;;;;5066053;28;20134;-82
2022/08/31 11:02:32;;;;;;;0.30;0.30;;;22.10;97.80;;;;;;5065035;28;20048;-80
2022/08/31 11:05:04;;;;;;;0.30;0.30;;;22.30;97.90;;;;;;5052082;28;20076;-80
2022/08/31 11:07:47;;;;;;;0.30;0.30;;;21.90;97.50;;;;;;5037771;28;21018;-82
2022/08/31 11:10:19;;;;;;;0.30;0.30;;;22.30;97.50;;;;;;5064660;28;20048;-82
2022/08/31 11:12:52;;;;;;;0.30;0.30;;;22.30;97.30;;;;;;5064704;28;20093;-79
2022/08/31 11:15:43;;;;;;;0.30;0.30;;;22.50;97.50;;;;;;5066949;28;20127;-81
2022/08/31 11:18:42;;;;;;;0.30;0.30;;;22.40;97.60;;;;;;5062972;28;20504;-82
2022/08/31 11:21:34;;;;;;;0.30;0.30;;;22.90;98.00;;;;;;5067468;28;20067;-83
2022/08/31 11:24:11;;;;;;;0.30;0.30;;;22.40;97.30;;;;;;5069013;28;20084;-81
2022/08/31 11:26:51;;;;;;;0.30;0.30;;;22.70;98.10;;;;;;5083152;28;20407;-80
2022/08/31 11:29:45;;;;;;;0.30;0.30;;;23.10;96.30;;;;;;5062187;28;20120;-81
2022/08/31 11:32:24;;;;;;;0.30;0.30;;;23.20;96.50;;;;;;5063600;28;20045;-78
2022/08/31 11:34:55;;;;;;;0.28;0.28;;;23.30;95.70;;;;;;5073277;28;20051;-81
2022/08/31 11:37:53;;;;;;;0.30;0.30;;;23.70;97.00;;;;;;5084871;28;20069;-81
2022/08/31 11:40:58;;;;;;;0.30;0.30;;;23.60;95.30;;;;;;5064978;28;20047;-82
2022/08/31 11:43:30;;;;;;;0.30;0.30;;;24.10;95.20;;;;;;5021130;28;20188;-84
2022/08/31 11:46:00;;;;;;;0.30;0.30;;;23.40;95.30;;;;;;5051298;28;20079;-82
2022/08/31 11:48:52;;;;;;;0.30;0.30;;;22.90;94.30;;;;;;5067162;28;20048;-82
2022/08/31 11:51:32;;;;;;;0.30;0.30;;;22.90;95.20;;;;;;5066633;28;20131;-81
2022/08/31 11:54:00;;;;;;;0.30;0.30;;;23.40;95.00;;;;;;5083075;28;20039;-82
2022/08/31 11:56:38;;;;;;;0.30;0.30;;;23.60;94.20;;;;;;5054710;28;20590;-83
2022/08/31 11:59:38;;;;;;;0.30;0.30;;;23.10;92.40;;;;;;5064197;28;20043;-81
2022/08/31 12:02:19;;;;;;;0.30;0.30;;;22.80;92.90;;;;;;5020762;28;20521;-81
2022/08/31 12:04:46;;;;;;;0.30;0.30;;;22.80;93.80;;;;;;5064798;28;20043;-81
2022/08/31 12:07:35;;;;;;;0.30;0.30;;;23.20;93.60;;;;;;5084249;28;20054;-81
2022/08/31 12:10:29;;;;;;;0.30;0.30;;;23.00;92.60;;;;;;5066377;28;20043;-78
2022/08/31 12:13:06;;;;;;;0.30;0.30;;;23.30;92.00;;;;;;5064042;28;20062;-81
2022/08/31 12:15:57;;;;;;;0.30;0.30;;;23.50;92.90;;;;;;5065703;28;20067;-80
2022/08/31 12:18:41;;;;;;;0.30;0.30;;;23.20;92.40;;;;;;5065001;28;20059;-84
2022/08/31 12:24:39;;;;;;;0.30;0.30;;;22.90;92.30;;;;;;5084950;28;20047;-83
2022/08/31 12:27:43;;;;;;;0.30;0.30;;;23.30;93.10;;;;;;5068837;28;20031;-82
2022/08/31 12:30:18;;;;;;;0.30;0.30;;;23.90;93.80;;;;;;5031807;28;20147;-79
2022/08/31 12:32:48;;;;;;;0.30;0.30;;;24.00;93.20;;;;;;5069403;28;20056;-79
2022/08/31 12:35:27;;;;;;;0.30;0.30;;;23.60;91.50;;;;;;5065963;28;20553;-84
2022/08/31 12:38:03;;;;;;;0.30;0.30;;;23.30;92.60;;;;;;5067267;28;20043;-81
2022/08/31 12:40:32;;;;;;;0.38;0.38;;;23.80;93.10;;;;;;5062544;28;20043;-85
2022/08/31 12:43:07;;;;;;;0.30;0.30;;;23.80;91.90;;;;;;5065849;28;20047;-81
2022/08/31 12:46:10;;;;;;;0.30;0.30;;;23.90;91.70;;;;;;5065787;28;20059;-81
2022/08/31 12:48:41;;;;;;;0.30;0.30;;;23.30;90.60;;;;;;5073742;28;20044;-83
2022/08/31 12:51:32;;;;;;;0.30;0.30;;;23.70;92.00;;;;;;5070069;28;20082;-82
2022/08/31 12:54:07;;;;;;;0.30;0.30;;;24.10;92.30;;;;;;5067975;28;20152;-83
2022/08/31 12:57:03;;;;;;;0.35;0.35;;;24.00;91.60;;;;;;5050454;28;20048;-83
2022/08/31 13:00:14;;;;;;;0.30;0.30;;;23.60;91.50;;;;;;5065689;28;20051;-81
2022/08/31 13:02:43;;;;;;;0.32;0.32;;;24.50;92.50;;;;;;5061137;28;20059;-83
2022/08/31 13:05:30;;;;;;;0.30;0.30;;;24.60;91.30;;;;;;5085607;28;20726;-82
2022/08/31 13:07:57;;;;;;;0.30;0.30;;;24.10;91.60;;;;;;5049126;28;20058;-83
2022/08/31 13:10:28;;;;;;;0.38;0.38;;;24.10;91.20;;;;;;5069023;28;20115;-81
2022/08/31 13:13:01;;;;;;;0.30;0.30;;;24.30;91.50;;;;;;5053586;28;20039;-83
2022/08/31 13:15:34;;;;;;;0.30;0.30;;;24.20;90.20;;;;;;5069156;28;20550;-79
2022/08/31 13:18:01;;;;;;;0.30;0.30;;;24.30;91.40;;;;;;5052186;28;20056;-81
2022/08/31 13:20:39;;;;;;;0.30;0.30;;;24.60;91.30;;;;;;5064442;28;20070;-80
2022/08/31 13:23:06;;;;;;;0.30;0.30;;;24.80;91.20;;;;;;5079417;28;20040;-80
2022/08/31 13:25:35;;;;;;;0.30;0.30;;;25.30;91.00;;;;;;5085798;28;20051;-79
2022/08/31 13:28:13;;;;;;;0.30;0.30;;;24.60;91.20;;;;;;5049399;28;20131;-83
2022/08/31 13:30:42;;;;;;;0.30;0.30;;;24.50;90.90;;;;;;5042358;28;20112;-84